sensor_id;sensor_type;location;lat;lon;timestamp;pressure;altitude;pressure_sealevel;temperature;humidity
21623;BME280;10973;46.706;12.340;2022-11-23T00:01:30;85702.84;;;2.81;62.09
21623;BME280;10973;46.706;12.340;2022-11-23T00:04:02;85708.41;;;2.80;62.04
21623;BME280;10973;46.706;12.340;2022-11-23T00:06:30;85710.25;;;2.79;62.12
21623;BME280;10973;46.706;12.340;2022-11-23T00:08:58;85705.41;;;2.78;62.27
21623;BME280;10973;46.706;12.340;2022-11-23T00:11:27;85702.81;;;2.78;62.01
21623;BME280;10973;46.706;12.340;2022-11-23T00:13:54;85719.13;;;2.75;62.66
21623;BME280;10973;46.706;12.340;2022-11-23T00:16:26;85720.25;;;2.74;62.47
21623;BME280;10973;46.706;12.340;2022-11-23T00:18:59;85718.75;;;2.73;62.28
21623;BME280;10973;46.706;12.340;2022-11-23T00:21:30;85726.94;;;2.71;62.13
21623;BME280;10973;46.706;12.340;2022-11-23T00:23:58;85735.44;;;2.68;62.40
21623;BME280;10973;46.706;12.340;2022-11-23T00:26:26;85728.78;;;2.67;62.26
21623;BME280;10973;46.706;12.340;2022-11-23T00:28:53;85733.97;;;2.67;62.44
21623;BME280;10973;46.706;12.340;2022-11-23T00:31:21;85738.81;;;2.69;62.56
21623;BME280;10973;46.706;12.340;2022-11-23T00:33:53;85733.22;;;2.70;62.26
21623;BME280;10973;46.706;12.340;2022-11-23T00:36:23;85739.56;;;2.69;62.24
21623;BME280;10973;46.706;12.340;2022-11-23T00:38:52;85734.72;;;2.71;62.71
21623;BME280;10973;46.706;12.340;2022-11-23T00:41:23;85731.03;;;2.72;62.68
21623;BME280;10973;46.706;12.340;2022-11-23T00:43:51;85737.72;;;2.73;62.86
21623;BME280;10973;46.706;12.340;2022-11-23T00:48:51;85733.97;;;2.71;62.66
21623;BME280;10973;46.706;12.340;2022-11-23T00:51:24;85732.13;;;2.71;62.62
21623;BME280;10973;46.706;12.340;2022-11-23T00:53:51;85742.53;;;2.71;62.59
21623;BME280;10973;46.706;12.340;2022-11-23T00:56:19;85740.31;;;2.70;62.53
21623;BME280;10973;46.706;12.340;2022-11-23T00:58:55;85739.16;;;2.64;62.83
21623;BME280;10973;46.706;12.340;2022-11-23T01:01:27;85725.41;;;2.63;62.55
21623;BME280;10973;46.706;12.340;2022-11-23T01:03:57;85749.19;;;2.65;62.58
21623;BME280;10973;46.706;12.340;2022-11-23T01:06:31;85745.09;;;2.64;62.65
21623;BME280;10973;46.706;12.340;2022-11-23T01:09:12;85733.94;;;2.64;62.74
21623;BME280;10973;46.706;12.340;2022-11-23T01:11:39;85740.28;;;2.63;62.81
21623;BME280;10973;46.706;12.340;2022-11-23T01:14:07;85745.84;;;2.65;62.56
21623;BME280;10973;46.706;12.340;2022-11-23T01:16:37;85750.28;;;2.64;62.48
21623;BME280;10973;46.706;12.340;2022-11-23T01:19:12;85741.38;;;2.62;62.24
21623;BME280;10973;46.706;12.340;2022-11-23T01:21:39;85736.91;;;2.62;62.23
21623;BME280;10973;46.706;12.340;2022-11-23T01:24:17;85740.63;;;2.61;62.29
21623;BME280;10973;46.706;12.340;2022-11-23T01:26:50;85744.34;;;2.60;62.43
21623;BME280;10973;46.706;12.340;2022-11-23T01:29:17;85744.31;;;2.57;62.40
21623;BME280;10973;46.706;12.340;2022-11-23T01:31:45;85744.66;;;2.55;62.09
21623;BME280;10973;46.706;12.340;2022-11-23T01:34:14;85742.06;;;2.55;62.29
21623;BME280;10973;46.706;12.340;2022-11-23T01:36:43;85742.06;;;2.55;61.90
21623;BME280;10973;46.706;12.340;2022-11-23T01:39:12;85741.69;;;2.50;62.07
21623;BME280;10973;46.706;12.340;2022-11-23T01:41:42;85743.16;;;2.47;61.99
21623;BME280;10973;46.706;12.340;2022-11-23T01:46:58;85741.28;;;2.44;61.67
21623;BME280;10973;46.706;12.340;2022-11-23T01:52:11;85742.34;;;2.40;61.73
21623;BME280;10973;46.706;12.340;2022-11-23T01:54:57;85746.09;;;2.42;61.77
21623;BME280;10973;46.706;12.340;2022-11-23T01:57:39;85746.41;;;2.37;61.15
21623;BME280;10973;46.706;12.340;2022-11-23T02:00:09;85744.91;;;2.33;61.25
21623;BME280;10973;46.706;12.340;2022-11-23T02:02:41;85748.22;;;2.30;60.84
21623;BME280;10973;46.706;12.340;2022-11-23T02:05:10;85750.81;;;2.26;61.17
21623;BME280;10973;46.706;12.340;2022-11-23T02:07:40;85742.63;;;2.28;60.97
21623;BME280;10973;46.706;12.340;2022-11-23T02:10:08;85750.03;;;2.22;60.75
21623;BME280;10973;46.706;12.340;2022-11-23T02:12:35;85748.16;;;2.19;61.03
21623;BME280;10973;46.706;12.340;2022-11-23T02:15:03;85748.53;;;2.17;60.71
21623;BME280;10973;46.706;12.340;2022-11-23T02:17:33;85753.34;;;2.15;60.46
21623;BME280;10973;46.706;12.340;2022-11-23T02:20:20;85762.59;;;2.13;60.52
21623;BME280;10973;46.706;12.340;2022-11-23T02:28:24;85763.94;;;2.00;59.95
21623;BME280;10973;46.706;12.340;2022-11-23T02:30:54;85761.72;;;1.95;60.01
21623;BME280;10973;46.706;12.340;2022-11-23T02:33:22;85759.81;;;1.92;59.70
21623;BME280;10973;46.706;12.340;2022-11-23T02:35:56;85761.66;;;1.88;59.55
21623;BME280;10973;46.706;12.340;2022-11-23T02:38:29;85766.78;;;1.84;59.66
21623;BME280;10973;46.706;12.340;2022-11-23T02:40:58;85766.78;;;1.84;59.82
21623;BME280;10973;46.706;12.340;2022-11-23T02:43:25;85769.00;;;1.82;59.61
21623;BME280;10973;46.706;12.340;2022-11-23T02:45:56;85766.00;;;1.77;59.75
21623;BME280;10973;46.706;12.340;2022-11-23T02:48:25;85754.88;;;1.76;59.34
21623;BME280;10973;46.706;12.340;2022-11-23T02:50:52;85760.44;;;1.75;59.62
21623;BME280;10973;46.706;12.340;2022-11-23T02:53:19;85771.16;;;1.73;59.65
21623;BME280;10973;46.706;12.340;2022-11-23T02:55:46;85761.13;;;1.72;59.54
21623;BME280;10973;46.706;12.340;2022-11-23T02:58:14;85760.38;;;1.71;59.75
21623;BME280;10973;46.706;12.340;2022-11-23T03:00:41;85767.41;;;1.71;59.63
21623;BME280;10973;46.706;12.340;2022-11-23T03:03:08;85762.97;;;1.71;59.67
21623;BME280;10973;46.706;12.340;2022-11-23T03:05:36;85758.16;;;1.70;59.43
21623;BME280;10973;46.706;12.340;2022-11-23T03:08:04;85758.50;;;1.68;59.24
21623;BME280;10973;46.706;12.340;2022-11-23T03:10:34;85766.28;;;1.68;59.49
21623;BME280;10973;46.706;12.340;2022-11-23T03:13:02;85766.63;;;1.63;59.44
21623;BME280;10973;46.706;12.340;2022-11-23T03:15:29;85775.13;;;1.64;58.81
21623;BME280;10973;46.706;12.340;2022-11-23T03:17:56;85773.22;;;1.57;59.37
21623;BME280;10973;46.706;12.340;2022-11-23T03:20:23;85766.56;;;1.60;59.40
21623;BME280;10973;46.706;12.340;2022-11-23T03:22:51;85767.69;;;1.59;59.26
21623;BME280;10973;46.706;12.340;2022-11-23T03:25:18;85774.34;;;1.56;59.11
21623;BME280;10973;46.706;12.340;2022-11-23T03:27:45;85773.56;;;1.52;58.94
21623;BME280;10973;46.706;12.340;2022-11-23T03:30:12;85781.69;;;1.51;58.90
21623;BME280;10973;46.706;12.340;2022-11-23T03:32:43;85774.63;;;1.48;58.80
21623;BME280;10973;46.706;12.340;2022-11-23T03:35:18;85781.66;;;1.47;59.45
21623;BME280;10973;46.706;12.340;2022-11-23T03:37:45;85793.53;;;1.48;59.38
21623;BME280;10973;46.706;12.340;2022-11-23T03:40:13;85792.44;;;1.49;59.54
21623;BME280;10973;46.706;12.340;2022-11-23T03:42:40;85790.59;;;1.50;59.32
21623;BME280;10973;46.706;12.340;2022-11-23T03:45:08;85792.75;;;1.44;59.21
21623;BME280;10973;46.706;12.340;2022-11-23T04:00:11;85791.91;;;2.13;57.17
21623;BME280;10973;46.706;12.340;2022-11-23T04:02:39;85801.06;;;1.97;57.76
21623;BME280;10973;46.706;12.340;2022-11-23T04:05:07;85798.00;;;1.88;58.14
21623;BME280;10973;46.706;12.340;2022-11-23T04:07:35;85800.91;;;1.79;58.56
21623;BME280;10973;46.706;12.340;2022-11-23T04:10:03;85806.03;;;1.76;58.43
21623;BME280;10973;46.706;12.340;2022-11-23T04:12:30;85810.84;;;1.74;58.80
21623;BME280;10973;46.706;12.340;2022-11-23T04:14:57;85797.09;;;1.70;59.05
21623;BME280;10973;46.706;12.340;2022-11-23T04:17:25;85803.75;;;1.71;59.18
21623;BME280;10973;46.706;12.340;2022-11-23T04:19:52;85812.66;;;1.70;59.69
21623;BME280;10973;46.706;12.340;2022-11-23T04:22:19;85809.31;;;1.69;59.76
21623;BME280;10973;46.706;12.340;2022-11-23T04:24:46;85804.13;;;1.69;59.59
21623;BME280;10973;46.706;12.340;2022-11-23T04:27:14;85810.78;;;1.67;59.66
21623;BME280;10973;46.706;12.340;2022-11-23T04:29:41;85811.16;;;1.69;59.71
21623;BME280;10973;46.706;12.340;2022-11-23T04:32:08;85811.91;;;1.66;59.63
21623;BME280;10973;46.706;12.340;2022-11-23T04:34:36;85812.28;;;1.68;59.83
21623;BME280;10973;46.706;12.340;2022-11-23T04:37:03;85816.72;;;1.67;59.86
21623;BME280;10973;46.706;12.340;2022-11-23T04:39:39;85809.69;;;1.68;60.15
21623;BME280;10973;46.706;12.340;2022-11-23T04:42:07;85816.03;;;1.74;60.02
21623;BME280;10973;46.706;12.340;2022-11-23T04:44:35;85808.63;;;1.76;59.64
21623;BME280;10973;46.706;12.340;2022-11-23T04:47:02;85806.44;;;1.78;59.57
21623;BME280;10973;46.706;12.340;2022-11-23T04:49:29;85806.09;;;1.79;59.76
21623;BME280;10973;46.706;12.340;2022-11-23T04:51:57;85808.63;;;1.76;59.45
21623;BME280;10973;46.706;12.340;2022-11-23T04:54:24;85810.91;;;1.81;59.53
21623;BME280;10973;46.706;12.340;2022-11-23T04:56:51;85811.31;;;1.83;59.42
21623;BME280;10973;46.706;12.340;2022-11-23T04:59:19;85816.13;;;1.81;59.63
21623;BME280;10973;46.706;12.340;2022-11-23T05:01:46;85811.66;;;1.81;59.60
21623;BME280;10973;46.706;12.340;2022-11-23T05:04:14;85812.41;;;1.82;59.69
21623;BME280;10973;46.706;12.340;2022-11-23T05:06:44;85815.03;;;1.85;59.65
21623;BME280;10973;46.706;12.340;2022-11-23T05:09:12;85810.59;;;1.86;59.62
21623;BME280;10973;46.706;12.340;2022-11-23T05:11:39;85819.88;;;1.87;59.63
21623;BME280;10973;46.706;12.340;2022-11-23T05:14:07;85816.19;;;1.88;60.11
21623;BME280;10973;46.706;12.340;2022-11-23T05:16:36;85825.06;;;1.87;59.89
21623;BME280;10973;46.706;12.340;2022-11-23T05:19:03;85820.66;;;1.91;59.98
21623;BME280;10973;46.706;12.340;2022-11-23T05:21:30;85818.03;;;1.91;60.05
21623;BME280;10973;46.706;12.340;2022-11-23T05:23:57;85810.25;;;1.91;60.25
21623;BME280;10973;46.706;12.340;2022-11-23T05:26:24;85812.50;;;1.92;59.68
21623;BME280;10973;46.706;12.340;2022-11-23T05:28:52;85811.75;;;1.92;59.94
21623;BME280;10973;46.706;12.340;2022-11-23T05:31:19;85814.34;;;1.92;59.86
21623;BME280;10973;46.706;12.340;2022-11-23T05:33:46;85819.56;;;1.92;60.08
21623;BME280;10973;46.706;12.340;2022-11-23T05:36:13;85823.25;;;1.91;60.25
21623;BME280;10973;46.706;12.340;2022-11-23T05:38:41;85815.13;;;1.92;60.15
21623;BME280;10973;46.706;12.340;2022-11-23T05:41:08;85814.75;;;1.94;60.27
21623;BME280;10973;46.706;12.340;2022-11-23T05:43:35;85824.03;;;1.95;60.32
21623;BME280;10973;46.706;12.340;2022-11-23T05:46:03;85821.81;;;1.97;60.15
21623;BME280;10973;46.706;12.340;2022-11-23T05:48:30;85817.34;;;1.94;60.18
21623;BME280;10973;46.706;12.340;2022-11-23T05:50:57;85818.09;;;1.94;60.42
21623;BME280;10973;46.706;12.340;2022-11-23T05:53:31;85815.44;;;1.91;60.51
21623;BME280;10973;46.706;12.340;2022-11-23T05:56:00;85819.16;;;1.90;60.27
21623;BME280;10973;46.706;12.340;2022-11-23T05:58:28;85826.88;;;1.83;60.56
21623;BME280;10973;46.706;12.340;2022-11-23T06:00:59;85834.28;;;1.81;60.31
21623;BME280;10973;46.706;12.340;2022-11-23T06:03:27;85828.72;;;1.82;60.72
21623;BME280;10973;46.706;12.340;2022-11-23T06:05:54;85830.94;;;1.80;60.39
21623;BME280;10973;46.706;12.340;2022-11-23T06:08:21;85826.50;;;1.81;60.25
21623;BME280;10973;46.706;12.340;2022-11-23T06:10:48;85832.00;;;1.76;60.60
21623;BME280;10973;46.706;12.340;2022-11-23T06:13:16;85833.81;;;1.72;60.51
21623;BME280;10973;46.706;12.340;2022-11-23T06:15:43;85832.00;;;1.76;60.82
21623;BME280;10973;46.706;12.340;2022-11-23T06:18:10;85842.41;;;1.76;60.90
21623;BME280;10973;46.706;12.340;2022-11-23T06:20:37;85834.25;;;1.77;60.94
21623;BME280;10973;46.706;12.340;2022-11-23T06:23:04;85841.63;;;1.75;60.84
21623;BME280;10973;46.706;12.340;2022-11-23T06:25:32;85838.66;;;1.73;60.97
21623;BME280;10973;46.706;12.340;2022-11-23T06:28:00;85846.84;;;1.75;61.00
21623;BME280;10973;46.706;12.340;2022-11-23T06:30:28;85846.50;;;1.77;60.89
21623;BME280;10973;46.706;12.340;2022-11-23T06:32:56;85844.28;;;1.79;60.85
21623;BME280;10973;46.706;12.340;2022-11-23T06:35:23;85843.09;;;1.73;60.87
21623;BME280;10973;46.706;12.340;2022-11-23T06:37:51;85842.78;;;1.78;61.41
21623;BME280;10973;46.706;12.340;2022-11-23T06:40:18;85853.25;;;1.85;60.97
21623;BME280;10973;46.706;12.340;2022-11-23T06:42:46;85848.44;;;1.87;60.85
21623;BME280;10973;46.706;12.340;2022-11-23T06:45:13;85850.28;;;1.86;60.74
21623;BME280;10973;46.706;12.340;2022-11-23T06:47:43;85848.44;;;1.87;60.95
21623;BME280;10973;46.706;12.340;2022-11-23T06:50:11;85855.53;;;1.90;60.81
21623;BME280;10973;46.706;12.340;2022-11-23T06:52:38;85866.28;;;1.92;60.90
21623;BME280;10973;46.706;12.340;2022-11-23T06:55:05;85860.34;;;1.91;60.72
21623;BME280;10973;46.706;12.340;2022-11-23T06:57:33;85867.38;;;1.91;61.08
21623;BME280;10973;46.706;12.340;2022-11-23T07:00:00;85868.53;;;1.93;60.95
21623;BME280;10973;46.706;12.340;2022-11-23T07:02:27;85871.50;;;1.95;61.12
21623;BME280;10973;46.706;12.340;2022-11-23T07:04:54;85880.06;;;1.96;61.02
21623;BME280;10973;46.706;12.340;2022-11-23T07:07:22;85880.44;;;1.94;60.87
21623;BME280;10973;46.706;12.340;2022-11-23T07:09:49;85879.72;;;1.97;60.91
21623;BME280;10973;46.706;12.340;2022-11-23T07:12:16;85883.03;;;1.98;61.02
21623;BME280;10973;46.706;12.340;2022-11-23T07:14:43;85888.28;;;2.01;60.86
21623;BME280;10973;46.706;12.340;2022-11-23T07:17:10;85886.44;;;2.02;60.59
21623;BME280;10973;46.706;12.340;2022-11-23T07:19:43;85897.19;;;2.00;60.87
21623;BME280;10973;46.706;12.340;2022-11-23T07:22:10;85893.81;;;2.00;60.90
21623;BME280;10973;46.706;12.340;2022-11-23T07:24:37;85900.53;;;2.01;60.95
21623;BME280;10973;46.706;12.340;2022-11-23T07:27:12;85895.34;;;2.01;60.99
21623;BME280;10973;46.706;12.340;2022-11-23T07:29:39;85900.16;;;2.02;60.80
21623;BME280;10973;46.706;12.340;2022-11-23T07:32:07;85905.03;;;2.07;60.91
21623;BME280;10973;46.706;12.340;2022-11-23T07:34:34;85912.13;;;2.10;61.19
21623;BME280;10973;46.706;12.340;2022-11-23T07:37:01;85905.47;;;2.13;61.03
21623;BME280;10973;46.706;12.340;2022-11-23T07:39:28;85905.16;;;2.18;61.08
21623;BME280;10973;46.706;12.340;2022-11-23T07:42:15;85916.66;;;2.21;60.90
21623;BME280;10973;46.706;12.340;2022-11-23T07:45:01;85915.22;;;2.23;61.32
21623;BME280;10973;46.706;12.340;2022-11-23T07:47:29;85912.66;;;2.27;60.92
21623;BME280;10973;46.706;12.340;2022-11-23T07:49:56;85919.38;;;2.31;60.93
21623;BME280;10973;46.706;12.340;2022-11-23T07:52:24;85914.22;;;2.35;60.95
21623;BME280;10973;46.706;12.340;2022-11-23T07:54:51;85916.84;;;2.38;60.96
21623;BME280;10973;46.706;12.340;2022-11-23T07:57:18;85918.72;;;2.38;61.09
21623;BME280;10973;46.706;12.340;2022-11-23T07:59:45;85916.13;;;2.41;60.75
21623;BME280;10973;46.706;12.340;2022-11-23T08:02:14;85922.13;;;2.45;60.79
21623;BME280;10973;46.706;12.340;2022-11-23T08:04:42;85925.50;;;2.49;61.17
21623;BME280;10973;46.706;12.340;2022-11-23T08:07:09;85925.13;;;2.51;60.92
21623;BME280;10973;46.706;12.340;2022-11-23T08:09:37;85925.91;;;2.55;61.12
21623;BME280;10973;46.706;12.340;2022-11-23T08:12:04;85930.41;;;2.61;61.09
21623;BME280;10973;46.706;12.340;2022-11-23T08:14:32;85937.88;;;2.63;61.36
21623;BME280;10973;46.706;12.340;2022-11-23T08:16:59;85937.88;;;2.66;61.09
21623;BME280;10973;46.706;12.340;2022-11-23T08:19:27;85942.38;;;2.69;61.17
21623;BME280;10973;46.706;12.340;2022-11-23T08:21:54;85940.19;;;2.75;61.06
21623;BME280;10973;46.706;12.340;2022-11-23T08:24:21;85938.00;;;2.80;60.82
21623;BME280;10973;46.706;12.340;2022-11-23T08:26:48;85940.63;;;2.84;60.76
21623;BME280;10973;46.706;12.340;2022-11-23T08:29:15;85935.09;;;2.89;60.94
21623;BME280;10973;46.706;12.340;2022-11-23T08:31:43;85937.38;;;2.94;60.88
21623;BME280;10973;46.706;12.340;2022-11-23T08:34:10;85949.31;;;2.99;60.64
21623;BME280;10973;46.706;12.340;2022-11-23T08:36:37;85940.03;;;3.01;60.87
21623;BME280;10973;46.706;12.340;2022-11-23T08:39:05;85939.31;;;3.04;60.51
21623;BME280;10973;46.706;12.340;2022-11-23T08:41:32;85941.94;;;3.08;60.98
21623;BME280;10973;46.706;12.340;2022-11-23T08:44:00;85948.66;;;3.09;60.65
21623;BME280;10973;46.706;12.340;2022-11-23T08:46:27;85943.50;;;3.16;60.89
21623;BME280;10973;46.706;12.340;2022-11-23T08:48:54;85953.56;;;3.21;60.64
21623;BME280;10973;46.706;12.340;2022-11-23T08:51:21;85955.81;;;3.26;60.56
21623;BME280;10973;46.706;12.340;2022-11-23T08:53:49;85945.78;;;3.28;60.58
21623;BME280;10973;46.706;12.340;2022-11-23T08:56:18;85958.09;;;3.34;60.49
21623;BME280;10973;46.706;12.340;2022-11-23T08:58:46;85964.81;;;3.35;60.57
21623;BME280;10973;46.706;12.340;2022-11-23T09:01:16;85966.34;;;3.40;60.45
21623;BME280;10973;46.706;12.340;2022-11-23T09:03:44;85966.00;;;3.45;60.27
21623;BME280;10973;46.706;12.340;2022-11-23T09:06:11;85961.19;;;3.50;60.08
21623;BME280;10973;46.706;12.340;2022-11-23T09:08:39;85972.38;;;3.54;60.11
21623;BME280;10973;46.706;12.340;2022-11-23T09:11:09;85968.66;;;3.55;60.14
21623;BME280;10973;46.706;12.340;2022-11-23T09:13:38;85980.97;;;3.58;60.07
21623;BME280;10973;46.706;12.340;2022-11-23T09:16:06;85976.09;;;3.57;59.89
21623;BME280;10973;46.706;12.340;2022-11-23T09:18:33;85985.09;;;3.63;59.94
21623;BME280;10973;46.706;12.340;2022-11-23T09:21:03;85980.63;;;3.67;59.80
21623;BME280;10973;46.706;12.340;2022-11-23T09:23:30;85978.41;;;3.73;60.14
21623;BME280;10973;46.706;12.340;2022-11-23T09:26:03;85981.44;;;3.78;59.92
21623;BME280;10973;46.706;12.340;2022-11-23T09:28:31;85987.41;;;3.82;60.08
21623;BME280;10973;46.706;12.340;2022-11-23T09:31:03;85994.50;;;3.85;60.04
21623;BME280;10973;46.706;12.340;2022-11-23T09:33:30;85993.78;;;3.88;59.98
21623;BME280;10973;46.706;12.340;2022-11-23T09:36:03;85988.22;;;3.93;60.04
21623;BME280;10973;46.706;12.340;2022-11-23T09:38:31;85994.94;;;3.98;59.68
21623;BME280;10973;46.706;12.340;2022-11-23T09:53:54;85995.03;;;4.19;59.64
21623;BME280;10973;46.706;12.340;2022-11-23T09:56:29;85998.41;;;4.23;59.51
21623;BME280;10973;46.706;12.340;2022-11-23T09:59:02;86004.41;;;4.27;59.51
21623;BME280;10973;46.706;12.340;2022-11-23T10:01:31;86007.00;;;4.30;59.18
21623;BME280;10973;46.706;12.340;2022-11-23T10:03:58;86007.78;;;4.34;59.62
21623;BME280;10973;46.706;12.340;2022-11-23T10:06:33;86009.28;;;4.39;59.33
21623;BME280;10973;46.706;12.340;2022-11-23T10:09:31;85999.63;;;4.47;58.76
21623;BME280;10973;46.706;12.340;2022-11-23T10:15:07;85996.31;;;4.60;58.54
21623;BME280;10973;46.706;12.340;2022-11-23T10:18:02;85994.09;;;4.69;58.43
21623;BME280;10973;46.706;12.340;2022-11-23T10:20:56;85992.66;;;4.79;58.17
21623;BME280;10973;46.706;12.340;2022-11-23T10:23:51;85995.25;;;4.82;57.74
21623;BME280;10973;46.706;12.340;2022-11-23T10:26:26;85991.94;;;4.92;57.64
21623;BME280;10973;46.706;12.340;2022-11-23T10:28:57;85984.13;;;4.99;57.63
21623;BME280;10973;46.706;12.340;2022-11-23T10:31:32;85985.22;;;5.09;57.59
21623;BME280;10973;46.706;12.340;2022-11-23T10:34:11;85976.66;;;5.16;57.55
21623;BME280;10973;46.706;12.340;2022-11-23T10:36:40;85971.44;;;5.19;57.21
21623;BME280;10973;46.706;12.340;2022-11-23T10:39:23;85980.38;;;5.25;56.83
21623;BME280;10973;46.706;12.340;2022-11-23T10:41:51;85979.28;;;5.30;57.07
21623;BME280;10973;46.706;12.340;2022-11-23T10:44:33;85979.66;;;5.35;56.68
21623;BME280;10973;46.706;12.340;2022-11-23T10:47:03;85969.19;;;5.39;56.67
21623;BME280;10973;46.706;12.340;2022-11-23T10:49:33;85964.34;;;5.44;56.08
21623;BME280;10973;46.706;12.340;2022-11-23T10:52:26;85968.09;;;5.54;55.70
21623;BME280;10973;46.706;12.340;2022-11-23T10:54:57;85967.34;;;5.60;54.86
21623;BME280;10973;46.706;12.340;2022-11-23T10:57:31;85972.19;;;5.62;54.63
21623;BME280;10973;46.706;12.340;2022-11-23T11:02:53;85972.56;;;5.74;53.86
21623;BME280;10973;46.706;12.340;2022-11-23T11:08:19;85968.81;;;5.90;53.87
21623;BME280;10973;46.706;12.340;2022-11-23T11:11:20;85968.44;;;5.95;54.04
21623;BME280;10973;46.706;12.340;2022-11-23T11:13:48;85965.41;;;6.03;53.92
21623;BME280;10973;46.706;12.340;2022-11-23T11:16:33;85961.69;;;6.08;53.92
21623;BME280;10973;46.706;12.340;2022-11-23T11:21:47;85962.38;;;6.19;54.41
21623;BME280;10973;46.706;12.340;2022-11-23T11:24:26;85969.47;;;6.29;53.51
21623;BME280;10973;46.706;12.340;2022-11-23T11:27:27;85965.66;;;6.44;53.17
21623;BME280;10973;46.706;12.340;2022-11-23T11:30:02;85963.03;;;6.51;52.01
21623;BME280;10973;46.706;12.340;2022-11-23T11:33:19;85964.47;;;6.59;51.53
21623;BME280;10973;46.706;12.340;2022-11-23T11:35:53;85968.22;;;6.65;52.75
21623;BME280;10973;46.706;12.340;2022-11-23T11:38:33;85964.03;;;6.75;52.99
21623;BME280;10973;46.706;12.340;2022-11-23T11:41:12;85961.75;;;6.84;52.55
21623;BME280;10973;46.706;12.340;2022-11-23T11:44:06;85965.06;;;6.91;51.52
21623;BME280;10973;46.706;12.340;2022-11-23T11:46:48;85960.88;;;7.04;51.05
21623;BME280;10973;46.706;12.340;2022-11-23T11:49:31;85962.69;;;7.14;52.62
21623;BME280;10973;46.706;12.340;2022-11-23T11:52:18;85969.00;;;7.20;52.92
21623;BME280;10973;46.706;12.340;2022-11-23T11:55:32;85973.13;;;7.22;51.02
21623;BME280;10973;46.706;12.340;2022-11-23T11:58:09;85970.13;;;7.23;51.09
21623;BME280;10973;46.706;12.340;2022-11-23T12:00:38;85968.25;;;7.24;50.92
21623;BME280;10973;46.706;12.340;2022-11-23T12:03:51;85961.16;;;7.20;50.58
21623;BME280;10973;46.706;12.340;2022-11-23T12:06:31;85963.78;;;7.20;51.02
21623;BME280;10973;46.706;12.340;2022-11-23T12:09:26;85962.25;;;7.27;51.82
21623;BME280;10973;46.706;12.340;2022-11-23T12:11:57;85958.91;;;7.22;52.76
21623;BME280;10973;46.706;12.340;2022-11-23T12:14:25;85963.41;;;7.18;56.27
21623;BME280;10973;46.706;12.340;2022-11-23T12:17:17;85961.94;;;7.17;53.89
21623;BME280;10973;46.706;12.340;2022-11-23T12:20:57;85957.06;;;7.16;53.89
21623;BME280;10973;46.706;12.340;2022-11-23T12:26:45;85966.53;;;6.96;53.56
21623;BME280;10973;46.706;12.340;2022-11-23T12:38:46;85960.13;;;6.28;55.95
21623;BME280;10973;46.706;12.340;2022-11-23T12:50:42;85968.44;;;5.59;56.93
21623;BME280;10973;46.706;12.340;2022-11-23T12:58:40;85971.06;;;5.21;57.44
21623;BME280;10973;46.706;12.340;2022-11-23T13:01:25;85963.22;;;5.10;57.55
21623;BME280;10973;46.706;12.340;2022-11-23T13:13:33;85963.88;;;4.58;57.99
21623;BME280;10973;46.706;12.340;2022-11-23T13:22:23;85962.72;;;4.38;58.23
21623;BME280;10973;46.706;12.340;2022-11-23T13:25:13;85967.56;;;4.36;57.86
21623;BME280;10973;46.706;12.340;2022-11-23T13:30:36;85959.31;;;4.23;58.00
21623;BME280;10973;46.706;12.340;2022-11-23T13:33:27;85964.47;;;4.12;58.41
21623;BME280;10973;46.706;12.340;2022-11-23T13:36:04;85959.25;;;4.09;58.53
21623;BME280;10973;46.706;12.340;2022-11-23T13:38:42;85964.06;;;4.07;58.36
21623;BME280;10973;46.706;12.340;2022-11-23T13:44:28;85966.66;;;3.96;58.05
21623;BME280;10973;46.706;12.340;2022-11-23T13:49:50;85971.81;;;3.89;58.11
21623;BME280;10973;46.706;12.340;2022-11-23T13:57:23;85973.25;;;3.76;57.96
21623;BME280;10973;46.706;12.340;2022-11-23T13:59:51;85968.38;;;3.71;58.03
21623;BME280;10973;46.706;12.340;2022-11-23T14:02:29;85969.50;;;3.70;57.70
21623;BME280;10973;46.706;12.340;2022-11-23T14:06:12;85968.72;;;3.66;57.71
21623;BME280;10973;46.706;12.340;2022-11-23T14:08:21;85979.13;;;3.66;58.23
21623;BME280;10973;46.706;12.340;2022-11-23T14:10:50;85979.13;;;3.63;57.85
21623;BME280;10973;46.706;12.340;2022-11-23T14:13:28;85983.19;;;3.60;58.12
21623;BME280;10973;46.706;12.340;2022-11-23T14:16:01;85975.72;;;3.55;58.24
21623;BME280;10973;46.706;12.340;2022-11-23T14:22:43;85982.00;;;3.47;58.16
21623;BME280;10973;46.706;12.340;2022-11-23T14:28:13;85991.22;;;3.37;58.15
21623;BME280;10973;46.706;12.340;2022-11-23T14:31:31;85989.69;;;3.29;57.86
21623;BME280;10973;46.706;12.340;2022-11-23T14:42:43;86002.59;;;3.15;57.71
21623;BME280;10973;46.706;12.340;2022-11-23T14:45:14;86001.47;;;3.13;57.80
21623;BME280;10973;46.706;12.340;2022-11-23T14:47:41;85997.72;;;3.10;57.87
21623;BME280;10973;46.706;12.340;2022-11-23T14:50:28;86001.41;;;3.06;57.97
21623;BME280;10973;46.706;12.340;2022-11-23T14:52:57;86001.72;;;3.01;58.07
21623;BME280;10973;46.706;12.340;2022-11-23T14:55:28;86008.78;;;3.00;58.03
21623;BME280;10973;46.706;12.340;2022-11-23T14:58:04;86006.16;;;2.97;57.95
21623;BME280;10973;46.706;12.340;2022-11-23T15:00:41;86002.41;;;2.94;57.48
21623;BME280;10973;46.706;12.340;2022-11-23T15:03:14;86006.84;;;2.90;57.72
21623;BME280;10973;46.706;12.340;2022-11-23T15:06:16;86006.03;;;2.82;57.61
21623;BME280;10973;46.706;12.340;2022-11-23T15:09:00;86010.09;;;2.80;57.52
21623;BME280;10973;46.706;12.340;2022-11-23T15:11:35;86018.56;;;2.73;57.83
21623;BME280;10973;46.706;12.340;2022-11-23T15:14:15;86014.81;;;2.71;57.95
21623;BME280;10973;46.706;12.340;2022-11-23T15:16:43;86014.06;;;2.70;57.59
21623;BME280;10973;46.706;12.340;2022-11-23T15:19:28;86023.69;;;2.66;57.41
21623;BME280;10973;46.706;12.340;2022-11-23T15:21:56;86032.97;;;2.64;57.35
21623;BME280;10973;46.706;12.340;2022-11-23T15:24:26;86035.91;;;2.62;57.35
21623;BME280;10973;46.706;12.340;2022-11-23T15:27:03;86042.13;;;2.51;57.18
21623;BME280;10973;46.706;12.340;2022-11-23T15:29:38;86046.22;;;2.52;57.21